Terminal Aerodrome Forecast
Issued by NWS Atlanta, GA

Home | Current Version | Previous Version | Text Only | Print | Product List | Glossary On
Versions: 1 2 3 4 5 6 7 8 9 10 11 12 13 14 15 16 17 18 19 20 21 22 23 24 25 26 27 28 29 30 31 32 33 34 35 36 37
846
FTUS42 KFFC 041741
TAFAHN
TAF
KAHN 041741Z 0418/0518 33009G16KT P6SM SCT060
     FM050200 31007KT P6SM BKN060
      TEMPO 0502/0504 33012G20KT 6SM SHRA BKN050
     FM050400 30010G18KT P6SM BKN050
     FM051200 31010G20KT P6SM SCT070
     FM051700 32018G27KT P6SM VCSH BKN050=

USA.gov is the U.S. government's official web portal to all federal, state and local government web resources and services.